createdAt,value
2018-06-14T00:00:00.863Z,0.00
2018-06-14T00:01:01.067Z,0.00
2018-06-14T00:02:01.218Z,0.00
2018-06-14T00:03:01.409Z,0.00
2018-06-14T00:04:01.591Z,0.00
2018-06-14T00:05:01.775Z,0.00
2018-06-14T00:06:01.975Z,0.00
2018-06-14T00:07:02.160Z,0.00
2018-06-14T00:08:02.320Z,0.00
2018-06-14T00:09:02.508Z,0.00
2018-06-14T00:10:02.697Z,0.00
2018-06-14T00:11:02.871Z,0.00
2018-06-14T00:12:03.100Z,0.00
2018-06-14T00:13:03.217Z,0.00
2018-06-14T00:14:03.407Z,0.00
2018-06-14T00:15:03.604Z,0.00
2018-06-14T00:16:03.771Z,0.00
2018-06-14T00:17:04.002Z,0.00
2018-06-14T00:18:04.163Z,0.00
2018-06-14T00:19:04.349Z,0.00
2018-06-14T00:20:04.499Z,0.00
2018-06-14T00:21:04.684Z,0.00
2018-06-14T00:22:04.862Z,0.00
2018-06-14T00:23:05.056Z,0.00
2018-06-14T00:24:05.230Z,0.00
2018-06-14T00:25:05.412Z,0.00
2018-06-14T00:26:05.595Z,0.00
2018-06-14T00:27:05.778Z,0.00
2018-06-14T00:28:05.995Z,0.00
2018-06-14T00:29:06.154Z,0.00
2018-06-14T00:30:06.340Z,0.00
2018-06-14T00:31:06.575Z,0.00
2018-06-14T00:32:06.708Z,0.00
2018-06-14T00:33:06.865Z,0.00
2018-06-14T00:34:07.059Z,0.00
2018-06-14T00:35:07.244Z,0.00
2018-06-14T00:36:07.452Z,0.00
2018-06-14T00:37:07.590Z,0.00
2018-06-14T00:38:07.772Z,0.00
2018-06-14T00:39:07.956Z,0.00
2018-06-14T00:40:08.146Z,0.00
2018-06-14T00:41:08.332Z,0.00
2018-06-14T00:42:08.504Z,0.00
2018-06-14T00:43:08.695Z,0.00
2018-06-14T00:44:08.863Z,0.00
2018-06-14T00:45:09.064Z,0.00
2018-06-14T00:46:09.252Z,0.00
2018-06-14T00:47:09.399Z,0.00
2018-06-14T00:48:09.596Z,0.00
2018-06-14T00:49:09.758Z,0.00
2018-06-14T00:50:09.956Z,0.00
2018-06-14T00:51:10.177Z,0.00
2018-06-14T00:52:10.287Z,0.00
2018-06-14T00:53:10.469Z,0.00
2018-06-14T00:54:10.659Z,0.00
2018-06-14T00:55:10.832Z,0.00
2018-06-14T00:56:11.045Z,0.00
2018-06-14T00:57:11.202Z,0.00
2018-06-14T00:58:11.423Z,0.00
2018-06-14T00:59:11.549Z,0.00
2018-06-14T01:00:11.732Z,0.00
2018-06-14T01:01:11.911Z,0.00
2018-06-14T01:02:12.100Z,0.00
2018-06-14T01:03:12.285Z,0.00
2018-06-14T01:04:12.502Z,0.00
2018-06-14T01:05:12.655Z,0.00
2018-06-14T01:06:12.834Z,0.00
2018-06-14T01:07:13.049Z,0.00
2018-06-14T01:08:13.189Z,0.00
2018-06-14T01:09:13.371Z,0.00
2018-06-14T01:10:13.549Z,0.00
2018-06-14T01:11:13.763Z,0.00
2018-06-14T01:12:13.959Z,0.00
2018-06-14T01:13:14.094Z,0.00
2018-06-14T01:14:14.279Z,0.00
2018-06-14T01:15:14.466Z,0.00
2018-06-14T01:16:14.649Z,0.00
2018-06-14T01:17:14.835Z,0.00
2018-06-14T01:18:15.035Z,0.00
2018-06-14T01:19:15.200Z,0.00
2018-06-14T01:20:15.384Z,0.00
2018-06-14T01:21:15.581Z,0.00
2018-06-14T01:22:15.755Z,0.00
2018-06-14T01:23:15.938Z,0.00
2018-06-14T01:24:16.130Z,0.00
2018-06-14T01:25:16.321Z,0.00
2018-06-14T01:26:16.505Z,0.00
2018-06-14T01:27:16.706Z,0.00
2018-06-14T01:28:16.909Z,0.00
2018-06-14T01:29:17.052Z,0.00
2018-06-14T01:30:17.238Z,0.00
2018-06-14T01:31:17.412Z,0.00
2018-06-14T01:32:17.617Z,0.00
2018-06-14T01:33:17.757Z,0.00
2018-06-14T01:34:17.934Z,0.00
2018-06-14T01:35:18.132Z,0.00
2018-06-14T01:36:18.283Z,0.00
2018-06-14T01:37:18.480Z,0.00
2018-06-14T01:38:18.706Z,0.00
2018-06-14T01:39:18.830Z,0.00
2018-06-14T01:40:19.013Z,0.00
2018-06-14T01:41:19.193Z,0.00
2018-06-14T01:42:19.411Z,0.00
2018-06-14T01:43:19.563Z,0.00
2018-06-14T01:44:19.742Z,0.00
2018-06-14T01:45:19.925Z,0.00
2018-06-14T01:46:20.133Z,0.00
2018-06-14T01:47:20.294Z,0.00
2018-06-14T01:48:20.516Z,0.00
2018-06-14T01:49:20.651Z,0.00
2018-06-14T01:50:20.834Z,0.00
2018-06-14T01:51:21.037Z,0.00
2018-06-14T01:52:21.212Z,0.00
2018-06-14T01:53:21.396Z,0.00
2018-06-14T01:54:21.592Z,0.00
2018-06-14T01:55:21.766Z,0.00
2018-06-14T01:56:21.983Z,0.00
2018-06-14T01:57:22.149Z,0.00
2018-06-14T01:58:22.314Z,0.00
2018-06-14T01:59:22.487Z,0.00
2018-06-14T02:00:22.667Z,0.00
2018-06-14T02:01:22.851Z,0.00
2018-06-14T02:02:23.035Z,0.00
2018-06-14T02:03:23.223Z,0.00
2018-06-14T02:04:23.417Z,0.00
2018-06-14T02:05:23.589Z,0.00
2018-06-14T02:06:23.776Z,0.00
2018-06-14T02:07:23.993Z,0.00
2018-06-14T02:08:24.151Z,0.00
2018-06-14T02:09:24.317Z,0.00
2018-06-14T02:10:24.496Z,0.00
2018-06-14T02:11:24.739Z,0.00
2018-06-14T02:12:24.858Z,0.00
2018-06-14T02:13:25.037Z,0.00
2018-06-14T02:14:25.231Z,0.00
2018-06-14T02:15:25.398Z,0.00
2018-06-14T02:16:25.605Z,0.00
2018-06-14T02:17:25.783Z,0.00
2018-06-14T02:18:25.944Z,0.00
2018-06-14T02:19:26.146Z,0.00
2018-06-14T02:20:26.321Z,0.00
2018-06-14T02:21:26.525Z,0.00
2018-06-14T02:22:26.721Z,0.00
2018-06-14T02:23:26.891Z,0.00
2018-06-14T02:24:27.100Z,0.00
2018-06-14T02:25:27.211Z,0.00
2018-06-14T02:26:27.397Z,0.00
2018-06-14T02:27:27.602Z,0.00
2018-06-14T02:28:27.752Z,0.00
2018-06-14T02:29:27.951Z,0.00
2018-06-14T02:30:28.164Z,0.00
2018-06-14T02:31:28.316Z,0.00
2018-06-14T02:32:28.493Z,0.00
2018-06-14T02:33:28.670Z,0.00
2018-06-14T02:34:28.866Z,0.00
2018-06-14T02:35:29.033Z,0.00
2018-06-14T02:36:29.209Z,0.00
2018-06-14T02:37:29.391Z,0.00
2018-06-14T02:38:29.601Z,0.00
2018-06-14T02:39:29.788Z,0.00
2018-06-14T02:40:29.920Z,0.00
2018-06-14T02:41:30.140Z,0.00
2018-06-14T02:42:30.322Z,0.00
2018-06-14T02:43:30.467Z,0.00
2018-06-14T02:44:30.643Z,0.00
2018-06-14T02:45:30.840Z,0.00
2018-06-14T02:46:31.047Z,0.00
2018-06-14T02:47:31.189Z,0.00
2018-06-14T02:48:31.416Z,0.00
2018-06-14T02:49:31.548Z,0.00
2018-06-14T02:52:14.948Z,0.00
2018-06-14T02:53:15.229Z,0.00
2018-06-14T02:54:15.359Z,0.00
2018-06-14T02:55:15.563Z,0.00
2018-06-14T02:56:15.676Z,0.00
2018-06-14T02:57:15.872Z,0.00
2018-06-14T02:58:16.929Z,0.00
2018-06-14T02:59:16.253Z,0.00
2018-06-14T03:00:16.421Z,0.00
2018-06-14T03:01:16.660Z,0.00
2018-06-14T03:02:16.776Z,0.00
2018-06-14T03:03:16.964Z,5.63
2018-06-14T03:04:17.137Z,5.63
2018-06-14T03:05:17.310Z,5.63
2018-06-14T03:06:17.526Z,5.63
2018-06-14T03:07:17.690Z,5.63
2018-06-14T03:08:17.871Z,5.63
2018-06-14T03:09:18.060Z,5.63
2018-06-14T03:10:18.279Z,5.63
2018-06-14T03:11:18.473Z,11.25
2018-06-14T03:12:18.607Z,11.25
2018-06-14T03:13:18.834Z,11.25
2018-06-14T03:14:18.967Z,11.25
2018-06-14T03:15:19.139Z,11.25
2018-06-14T03:16:19.327Z,11.25
2018-06-14T03:17:19.514Z,16.88
2018-06-14T03:18:19.686Z,16.88
2018-06-14T03:19:19.887Z,16.88
2018-06-14T03:20:20.048Z,16.88
2018-06-14T03:21:20.226Z,16.88
2018-06-14T03:22:20.409Z,16.88
2018-06-14T03:23:20.637Z,16.88
2018-06-14T03:24:20.775Z,16.88
2018-06-14T03:25:20.962Z,16.88
2018-06-14T03:26:21.155Z,16.88
2018-06-14T03:27:21.312Z,16.88
2018-06-14T03:28:21.500Z,16.88
2018-06-14T03:29:21.683Z,22.50
2018-06-14T03:30:21.871Z,22.50
2018-06-14T03:31:22.046Z,22.50
2018-06-14T03:32:22.226Z,22.50
2018-06-14T03:33:22.424Z,22.50
2018-06-14T03:34:22.585Z,22.50
2018-06-14T03:35:22.767Z,28.13
2018-06-14T03:36:22.951Z,28.13
2018-06-14T03:37:23.153Z,28.13
2018-06-14T03:38:23.324Z,33.75
2018-06-14T03:39:23.515Z,33.75
2018-06-14T03:40:23.682Z,33.75
2018-06-14T03:41:23.868Z,33.75
2018-06-14T03:42:24.067Z,33.75
2018-06-14T03:43:24.233Z,39.38
2018-06-14T03:44:24.418Z,39.38
2018-06-14T03:45:24.596Z,39.38
2018-06-14T03:46:24.805Z,39.38
2018-06-14T03:47:24.951Z,39.38
2018-06-14T03:48:25.128Z,45.00
2018-06-14T03:49:25.310Z,39.38
2018-06-14T03:50:25.485Z,39.38
2018-06-14T03:51:25.671Z,39.38
2018-06-14T03:52:25.868Z,39.38
2018-06-14T03:53:26.032Z,39.38
2018-06-14T03:54:26.213Z,45.00
2018-06-14T03:55:26.397Z,50.63
2018-06-14T03:56:26.573Z,50.63
2018-06-14T03:57:26.751Z,56.25
2018-06-14T03:58:26.952Z,56.25
2018-06-14T03:59:27.128Z,56.25
2018-06-14T04:00:27.363Z,50.63
2018-06-14T04:01:27.526Z,50.63
2018-06-14T04:02:27.706Z,50.63
2018-06-14T04:03:27.890Z,50.63
2018-06-14T04:04:28.082Z,50.63
2018-06-14T04:05:28.251Z,45.00
2018-06-14T04:06:28.437Z,45.00
2018-06-14T04:07:28.646Z,45.00
2018-06-14T04:08:28.792Z,50.63
2018-06-14T04:09:29.023Z,50.63
2018-06-14T04:10:29.290Z,50.63
2018-06-14T04:11:29.329Z,50.63
2018-06-14T04:12:29.493Z,56.25
2018-06-14T04:13:29.703Z,61.88
2018-06-14T04:14:29.862Z,67.50
2018-06-14T04:15:30.039Z,73.13
2018-06-14T04:16:30.219Z,84.38
2018-06-14T04:17:30.405Z,95.63
2018-06-14T04:18:30.622Z,101.25
2018-06-14T04:19:30.763Z,112.50
2018-06-14T04:20:31.000Z,123.75
2018-06-14T04:21:31.124Z,140.63
2018-06-14T04:22:31.306Z,151.88
2018-06-14T04:23:31.492Z,163.13
2018-06-14T04:24:31.685Z,174.38
2018-06-14T04:25:31.865Z,191.25
2018-06-14T04:26:32.056Z,208.13
2018-06-14T04:27:32.234Z,219.38
2018-06-14T04:28:32.406Z,225.00
2018-06-14T04:29:32.597Z,225.00
2018-06-14T04:30:32.813Z,225.00
2018-06-14T04:31:32.974Z,230.63
2018-06-14T04:32:33.176Z,236.25
2018-06-14T04:33:33.363Z,247.50
2018-06-14T04:34:33.560Z,270.00
2018-06-14T04:35:33.729Z,281.25
2018-06-14T04:36:33.897Z,303.75
2018-06-14T04:37:34.108Z,303.75
2018-06-14T04:38:34.291Z,360.00
2018-06-14T04:39:34.434Z,534.38
2018-06-14T04:40:34.605Z,798.75
2018-06-14T04:41:34.784Z,911.25
2018-06-14T04:42:34.962Z,860.63
2018-06-14T04:43:35.164Z,1068.75
2018-06-14T04:44:35.339Z,1305.00
2018-06-14T04:45:35.535Z,1350.00
2018-06-14T04:46:35.733Z,1321.88
2018-06-14T04:47:35.857Z,1288.13
2018-06-14T04:48:36.034Z,1220.63
2018-06-14T04:49:36.246Z,1355.63
2018-06-14T04:50:36.427Z,1327.50
2018-06-14T04:51:36.587Z,1305.00
2018-06-14T04:52:36.776Z,1248.75
2018-06-14T04:53:37.014Z,1366.88
2018-06-14T04:54:37.140Z,1411.88
2018-06-14T04:55:37.325Z,1305.00
2018-06-14T04:56:37.513Z,1175.63
2018-06-14T04:57:37.709Z,1276.88
2018-06-14T04:58:37.936Z,1321.88
2018-06-14T04:59:38.089Z,1321.88
2018-06-14T05:00:38.227Z,1344.38
2018-06-14T05:01:38.477Z,1355.63
2018-06-14T05:02:38.667Z,1400.63
2018-06-14T05:03:38.826Z,1226.25
2018-06-14T05:04:39.015Z,1226.25
2018-06-14T05:05:39.192Z,1248.75
2018-06-14T05:06:39.368Z,1220.63
2018-06-14T05:07:39.557Z,1209.38
2018-06-14T05:08:39.744Z,1260.00
2018-06-14T05:09:39.933Z,1423.13
2018-06-14T05:10:40.120Z,1659.38
2018-06-14T05:11:40.309Z,1867.50
2018-06-14T05:12:40.502Z,1805.63
2018-06-14T05:13:40.703Z,1867.50
2018-06-14T05:14:40.888Z,1867.50
2018-06-14T05:15:41.058Z,1867.50
2018-06-14T05:16:41.270Z,1878.75
2018-06-14T05:17:41.436Z,984.38
2018-06-14T05:18:41.609Z,1974.38
2018-06-14T05:19:41.841Z,1974.38
2018-06-14T05:20:41.985Z,1974.38
2018-06-14T05:21:42.177Z,1968.75
2018-06-14T05:22:42.365Z,1974.38
2018-06-14T05:23:42.578Z,2019.38
2018-06-14T05:24:42.721Z,2036.25
2018-06-14T05:25:42.907Z,2030.63
2018-06-14T05:26:43.092Z,2008.13
2018-06-14T05:27:43.286Z,1760.63
2018-06-14T05:28:43.480Z,1558.13
2018-06-14T05:29:43.763Z,1625.63
2018-06-14T05:30:43.859Z,1440.00
2018-06-14T05:31:44.068Z,1046.25
2018-06-14T05:32:44.256Z,866.25
2018-06-14T05:33:44.426Z,1035.00
2018-06-14T05:34:44.632Z,883.13
2018-06-14T05:35:44.814Z,990.00
2018-06-14T05:36:45.078Z,1181.25
2018-06-14T05:37:45.184Z,1046.25
2018-06-14T05:38:45.374Z,1462.50
2018-06-14T05:39:45.573Z,1901.25
2018-06-14T05:40:45.753Z,2030.63
2018-06-14T05:41:45.972Z,2030.63
2018-06-14T05:42:46.130Z,1766.25
2018-06-14T05:43:46.329Z,1676.25
2018-06-14T05:44:46.528Z,1518.75
2018-06-14T05:45:46.722Z,1580.63
2018-06-14T05:46:46.894Z,1507.50
2018-06-14T05:47:47.181Z,1845.00
2018-06-14T05:48:47.274Z,2081.25
2018-06-14T05:49:47.467Z,1738.13
2018-06-14T05:50:47.693Z,1738.13
2018-06-14T05:51:47.840Z,1603.13
2018-06-14T05:52:48.018Z,1918.13
2018-06-14T05:53:48.241Z,1732.50
2018-06-14T05:54:48.424Z,2379.38
2018-06-14T05:55:48.594Z,2520.00
2018-06-14T05:56:48.776Z,2520.00
2018-06-14T05:57:48.972Z,2396.25
2018-06-14T05:58:49.165Z,1856.25
2018-06-14T05:59:49.351Z,1158.75
2018-06-14T06:00:49.562Z,933.75
2018-06-14T06:01:49.760Z,928.13
2018-06-14T06:02:49.972Z,1265.63
2018-06-14T06:03:50.146Z,1164.38
2018-06-14T06:04:50.321Z,905.63
2018-06-14T06:05:50.531Z,759.38
2018-06-14T06:06:50.730Z,714.38
2018-06-14T06:07:50.937Z,675.00
2018-06-14T06:08:51.093Z,686.25
2018-06-14T06:09:51.268Z,753.75
2018-06-14T06:10:51.463Z,849.38
2018-06-14T06:11:51.695Z,1080.00
2018-06-14T06:12:51.883Z,1220.63
2018-06-14T06:13:52.031Z,1378.13
2018-06-14T06:14:52.223Z,1726.88
2018-06-14T06:15:52.416Z,1822.50
2018-06-14T06:16:52.604Z,1822.50
2018-06-14T06:17:52.787Z,1901.25
2018-06-14T06:18:52.988Z,1850.63
2018-06-14T06:19:53.167Z,1186.88
2018-06-14T06:20:53.385Z,500.63
2018-06-14T06:21:53.530Z,613.13
2018-06-14T06:22:53.711Z,500.63
2018-06-14T06:23:53.897Z,483.75
2018-06-14T06:24:54.080Z,472.50
2018-06-14T06:25:54.267Z,540.00
2018-06-14T06:26:54.448Z,590.63
2018-06-14T06:27:54.672Z,646.88
2018-06-14T06:28:54.866Z,635.63
2018-06-14T06:29:55.040Z,691.88
2018-06-14T06:30:55.226Z,646.88
2018-06-14T06:31:55.444Z,523.13
2018-06-14T06:32:55.602Z,517.50
2018-06-14T06:33:55.794Z,528.75
2018-06-14T06:34:55.990Z,478.13
2018-06-14T06:35:56.179Z,472.50
2018-06-14T06:36:56.367Z,495.00
2018-06-14T06:37:56.555Z,523.13
2018-06-14T06:38:56.753Z,624.38
2018-06-14T06:39:56.937Z,590.63
2018-06-14T06:40:57.143Z,590.63
2018-06-14T06:41:57.308Z,596.25
2018-06-14T06:42:57.514Z,556.88
2018-06-14T06:43:57.691Z,585.00
2018-06-14T06:44:57.904Z,618.75
2018-06-14T06:45:58.052Z,540.00
2018-06-14T06:46:58.235Z,528.75
2018-06-14T06:47:58.438Z,523.13
2018-06-14T06:48:58.609Z,540.00
2018-06-14T06:49:58.814Z,483.75
2018-06-14T06:50:58.984Z,483.75
2018-06-14T06:51:59.160Z,478.13
2018-06-14T06:52:59.348Z,478.13
2018-06-14T06:53:59.529Z,472.50
2018-06-14T06:54:59.714Z,466.88
2018-06-14T06:55:59.896Z,450.00
2018-06-14T06:57:00.088Z,585.00
2018-06-14T06:58:00.280Z,540.00
2018-06-14T06:59:00.498Z,540.00
2018-06-14T07:00:00.632Z,556.88
2018-06-14T07:01:00.818Z,607.50
2018-06-14T07:02:00.994Z,787.50
2018-06-14T07:03:01.183Z,1068.75
2018-06-14T07:04:01.371Z,1282.50
2018-06-14T07:05:01.584Z,1271.25
2018-06-14T07:06:01.739Z,855.00
2018-06-14T07:07:01.911Z,450.00
2018-06-14T07:08:02.104Z,635.63
2018-06-14T07:09:02.312Z,601.88
2018-06-14T07:10:02.445Z,517.50
2018-06-14T07:11:02.637Z,382.50
2018-06-14T07:12:02.875Z,354.38
2018-06-14T07:13:02.988Z,360.00
2018-06-14T07:14:03.225Z,416.25
2018-06-14T07:15:03.363Z,528.75
2018-06-14T07:16:03.545Z,528.75
2018-06-14T07:17:03.775Z,410.63
2018-06-14T07:18:03.910Z,551.25
2018-06-14T07:19:04.093Z,613.13
2018-06-14T07:20:04.312Z,759.38
2018-06-14T07:21:04.478Z,978.75
2018-06-14T07:22:04.662Z,365.63
2018-06-14T07:23:04.864Z,343.13
2018-06-14T07:24:05.001Z,973.13
2018-06-14T07:25:05.219Z,1738.13
2018-06-14T07:26:05.395Z,2013.75
2018-06-14T07:27:05.586Z,1912.50
2018-06-14T07:28:05.754Z,427.50
2018-06-14T07:29:05.905Z,382.50
2018-06-14T07:30:06.092Z,438.75
2018-06-14T07:31:06.301Z,309.38
2018-06-14T07:32:06.485Z,315.00
2018-06-14T07:33:06.640Z,348.75
2018-06-14T07:34:06.824Z,354.38
2018-06-14T07:35:07.031Z,669.38
2018-06-14T07:36:07.226Z,450.00
2018-06-14T07:37:07.367Z,433.13
2018-06-14T07:38:07.553Z,286.88
2018-06-14T07:39:07.734Z,264.38
2018-06-14T07:40:07.913Z,247.50
2018-06-14T07:41:08.116Z,236.25
2018-06-14T07:42:08.355Z,225.00
2018-06-14T07:43:08.569Z,219.38
2018-06-14T07:44:08.681Z,213.75
2018-06-14T07:45:08.876Z,202.50
2018-06-14T07:46:09.058Z,191.25
2018-06-14T07:47:09.224Z,174.38
2018-06-14T07:49:52.861Z,168.75
2018-06-14T07:50:52.860Z,174.38
2018-06-14T07:51:53.584Z,180.00
2018-06-14T07:52:53.322Z,180.00
2018-06-14T07:53:53.512Z,185.63
2018-06-14T07:54:53.638Z,191.25
2018-06-14T07:55:53.860Z,191.25
2018-06-14T07:56:54.055Z,191.25
2018-06-14T07:57:54.215Z,185.63
2018-06-14T07:58:54.434Z,180.00
2018-06-14T07:59:54.546Z,180.00
2018-06-14T08:00:54.743Z,185.63
2018-06-14T08:01:54.894Z,185.63
2018-06-14T08:02:55.093Z,191.25
2018-06-14T08:03:55.280Z,185.63
2018-06-14T08:04:55.473Z,185.63
2018-06-14T08:05:55.665Z,185.63
2018-06-14T08:06:55.874Z,180.00
2018-06-14T08:07:56.026Z,180.00
2018-06-14T08:08:56.231Z,174.38
2018-06-14T08:09:56.392Z,180.00
2018-06-14T08:10:56.589Z,180.00
2018-06-14T08:11:56.750Z,180.00
2018-06-14T08:12:56.932Z,185.63
2018-06-14T08:13:57.131Z,185.63
2018-06-14T08:14:57.297Z,185.63
2018-06-14T08:15:57.469Z,191.25
2018-06-14T08:16:57.662Z,191.25
2018-06-14T08:17:57.829Z,202.50
2018-06-14T08:18:58.009Z,213.75
2018-06-14T08:19:58.189Z,230.63
2018-06-14T08:20:58.387Z,348.75
2018-06-14T08:21:58.570Z,309.38
2018-06-14T08:22:58.745Z,298.13
2018-06-14T08:23:58.931Z,309.38
2018-06-14T08:24:59.173Z,388.13
2018-06-14T08:25:59.316Z,1423.13
2018-06-14T08:26:59.486Z,1496.25
2018-06-14T08:27:59.668Z,1530.00
2018-06-14T08:28:59.875Z,1496.25
2018-06-14T08:30:00.049Z,1496.25
2018-06-14T08:31:00.216Z,1445.63
2018-06-14T08:32:00.390Z,1428.75
2018-06-14T08:33:00.576Z,1468.13
2018-06-14T08:34:00.799Z,1434.38
2018-06-14T08:35:00.927Z,1417.50
2018-06-14T08:36:01.130Z,1383.75
2018-06-14T08:37:01.329Z,1406.25
2018-06-14T08:38:01.526Z,1198.13
2018-06-14T08:39:01.700Z,1265.63
2018-06-14T08:40:01.872Z,1254.38
2018-06-14T08:41:02.062Z,1085.63
2018-06-14T08:42:02.245Z,770.63
2018-06-14T08:43:02.451Z,478.13
2018-06-14T08:44:02.627Z,489.38
2018-06-14T08:45:02.817Z,466.88
2018-06-14T08:46:03.001Z,444.38
2018-06-14T08:47:03.191Z,292.50
2018-06-14T08:48:03.399Z,281.25
2018-06-14T08:49:03.578Z,258.75
2018-06-14T08:50:03.756Z,230.63
2018-06-14T08:51:03.934Z,225.00
2018-06-14T08:52:04.131Z,225.00
2018-06-14T08:53:04.305Z,241.88
2018-06-14T08:54:04.519Z,247.50
2018-06-14T08:55:04.682Z,253.13
2018-06-14T08:56:04.872Z,258.75
2018-06-14T08:57:05.056Z,264.38
2018-06-14T08:58:05.249Z,264.38
2018-06-14T08:59:05.496Z,264.38
2018-06-14T09:00:05.605Z,264.38
2018-06-14T09:01:05.790Z,264.38
2018-06-14T09:02:05.973Z,281.25
2018-06-14T09:03:06.159Z,309.38
2018-06-14T09:04:06.352Z,393.75
2018-06-14T09:05:06.537Z,438.75
2018-06-14T09:06:06.740Z,433.13
2018-06-14T09:07:06.928Z,348.75
2018-06-14T09:08:07.116Z,315.00
2018-06-14T09:09:07.351Z,382.50
2018-06-14T09:10:07.495Z,376.88
2018-06-14T09:11:07.720Z,438.75
2018-06-14T09:12:07.854Z,309.38
2018-06-14T09:13:08.047Z,298.13
2018-06-14T09:14:08.213Z,281.25
2018-06-14T09:15:08.394Z,270.00
2018-06-14T09:16:08.623Z,270.00
2018-06-14T09:17:08.803Z,264.38
2018-06-14T09:18:09.012Z,258.75
2018-06-14T09:19:09.168Z,258.75
2018-06-14T09:20:09.389Z,270.00
2018-06-14T09:21:09.570Z,331.88
2018-06-14T09:22:09.708Z,292.50
2018-06-14T09:23:09.889Z,348.75
2018-06-14T09:24:10.056Z,326.25
2018-06-14T09:25:10.235Z,315.00
2018-06-14T09:26:10.431Z,315.00
2018-06-14T09:27:10.601Z,309.38
2018-06-14T09:28:10.805Z,292.50
2018-06-14T09:29:11.013Z,309.38
2018-06-14T09:30:11.206Z,326.25
2018-06-14T09:31:11.388Z,337.50
2018-06-14T09:32:11.537Z,354.38
2018-06-14T09:33:11.725Z,405.00
2018-06-14T09:34:11.905Z,371.25
2018-06-14T09:35:12.103Z,354.38
2018-06-14T09:36:12.250Z,315.00
2018-06-14T09:37:12.432Z,298.13
2018-06-14T09:38:12.631Z,281.25
2018-06-14T09:39:12.855Z,281.25
2018-06-14T09:40:13.011Z,275.63
2018-06-14T09:41:13.227Z,286.88
2018-06-14T09:42:13.352Z,315.00
2018-06-14T09:43:13.534Z,438.75
2018-06-14T09:44:13.722Z,343.13
2018-06-14T09:45:13.911Z,337.50
2018-06-14T09:46:14.099Z,343.13
2018-06-14T09:47:14.337Z,376.88
2018-06-14T09:48:14.465Z,382.50
2018-06-14T09:49:14.645Z,354.38
2018-06-14T09:50:14.882Z,343.13
2018-06-14T09:51:15.009Z,331.88
2018-06-14T09:52:15.189Z,326.25
2018-06-14T09:53:15.399Z,320.63
2018-06-14T09:54:15.601Z,315.00
2018-06-14T09:55:15.742Z,331.88
2018-06-14T09:56:15.898Z,343.13
2018-06-14T09:57:16.131Z,348.75
2018-06-14T09:58:16.315Z,343.13
2018-06-14T09:59:16.488Z,343.13
2018-06-14T10:00:16.686Z,354.38
2018-06-14T10:01:16.896Z,348.75
2018-06-14T10:02:17.037Z,343.13
2018-06-14T10:03:17.226Z,343.13
2018-06-14T10:04:17.404Z,331.88
2018-06-14T10:05:17.574Z,348.75
2018-06-14T10:06:17.771Z,348.75
2018-06-14T10:07:17.949Z,337.50
2018-06-14T10:08:18.143Z,337.50
2018-06-14T10:09:18.313Z,331.88
2018-06-14T10:10:18.492Z,354.38
2018-06-14T10:11:18.673Z,337.50
2018-06-14T10:12:18.857Z,371.25
2018-06-14T10:13:19.059Z,309.38
2018-06-14T10:14:19.218Z,360.00
2018-06-14T10:15:19.414Z,315.00
2018-06-14T10:16:19.628Z,410.63
2018-06-14T10:17:19.776Z,399.38
2018-06-14T10:18:19.957Z,388.13
2018-06-14T10:19:20.140Z,309.38
2018-06-14T10:20:20.306Z,309.38
2018-06-14T10:21:20.490Z,343.13
2018-06-14T10:22:20.675Z,292.50
2018-06-14T10:23:20.866Z,286.88
2018-06-14T10:24:21.048Z,388.13
2018-06-14T10:25:21.225Z,393.75
2018-06-14T10:26:21.406Z,382.50
2018-06-14T10:27:21.595Z,393.75
2018-06-14T10:28:21.785Z,388.13
2018-06-14T10:29:22.046Z,393.75
2018-06-14T10:30:22.156Z,343.13
2018-06-14T10:31:22.336Z,292.50
2018-06-14T10:32:22.526Z,405.00
2018-06-14T10:33:22.714Z,405.00
2018-06-14T10:34:22.895Z,376.88
2018-06-14T10:35:23.090Z,399.38
2018-06-14T10:36:23.283Z,388.13
2018-06-14T10:37:23.455Z,393.75
2018-06-14T10:38:23.671Z,326.25
2018-06-14T10:39:23.849Z,303.75
2018-06-14T10:40:24.039Z,405.00
2018-06-14T10:41:24.207Z,405.00
2018-06-14T10:42:24.371Z,354.38
2018-06-14T10:43:24.613Z,264.38
2018-06-14T10:44:24.738Z,264.38
2018-06-14T10:45:24.943Z,264.38
2018-06-14T10:46:25.191Z,281.25
2018-06-14T10:47:25.332Z,309.38
2018-06-14T10:48:25.532Z,298.13
2018-06-14T10:49:25.712Z,315.00
2018-06-14T10:50:25.864Z,315.00
2018-06-14T10:51:26.117Z,331.88
2018-06-14T10:52:26.305Z,365.63
2018-06-14T10:53:26.433Z,405.00
2018-06-14T10:54:26.623Z,365.63
2018-06-14T10:55:26.794Z,337.50
2018-06-14T10:56:27.001Z,348.75
2018-06-14T10:57:27.149Z,303.75
2018-06-14T10:58:27.332Z,309.38
2018-06-14T10:59:27.522Z,309.38
2018-06-14T11:00:27.709Z,320.63
2018-06-14T11:01:27.888Z,343.13
2018-06-14T11:02:28.066Z,348.75
2018-06-14T11:03:28.246Z,410.63
2018-06-14T11:04:28.434Z,416.25
2018-06-14T11:05:28.624Z,315.00
2018-06-14T11:06:28.833Z,298.13
2018-06-14T11:07:28.999Z,281.25
2018-06-14T11:08:29.173Z,264.38
2018-06-14T11:09:29.363Z,253.13
2018-06-14T11:10:29.545Z,258.75
2018-06-14T11:11:29.750Z,270.00
2018-06-14T11:12:29.919Z,270.00
2018-06-14T11:13:30.095Z,292.50
2018-06-14T11:14:30.284Z,376.88
2018-06-14T11:15:30.447Z,365.63
2018-06-14T11:16:30.660Z,348.75
2018-06-14T11:17:30.820Z,286.88
2018-06-14T11:18:31.005Z,247.50
2018-06-14T11:19:31.187Z,236.25
2018-06-14T11:20:31.376Z,225.00
2018-06-14T11:21:31.576Z,219.38
2018-06-14T11:22:31.746Z,213.75
2018-06-14T11:23:31.942Z,303.75
2018-06-14T11:24:32.099Z,281.25
2018-06-14T11:25:32.310Z,219.38
2018-06-14T11:26:32.465Z,236.25
2018-06-14T11:27:32.686Z,247.50
2018-06-14T11:28:32.827Z,241.88
2018-06-14T11:29:33.026Z,236.25
2018-06-14T11:30:33.200Z,230.63
2018-06-14T11:31:33.385Z,230.63
2018-06-14T11:32:33.624Z,236.25
2018-06-14T11:33:33.747Z,247.50
2018-06-14T11:34:33.940Z,247.50
2018-06-14T11:35:34.142Z,247.50
2018-06-14T11:36:34.327Z,258.75
2018-06-14T11:37:34.504Z,315.00
2018-06-14T11:38:34.682Z,303.75
2018-06-14T11:39:34.885Z,292.50
2018-06-14T11:40:35.035Z,315.00
2018-06-14T11:41:35.235Z,298.13
2018-06-14T11:42:35.390Z,281.25
2018-06-14T11:43:35.580Z,281.25
2018-06-14T11:44:35.760Z,281.25
2018-06-14T11:45:35.944Z,275.63
2018-06-14T11:46:36.143Z,270.00
2018-06-14T11:47:36.319Z,270.00
2018-06-14T11:48:36.509Z,270.00
2018-06-14T11:49:36.693Z,275.63
2018-06-14T11:50:36.886Z,275.63
2018-06-14T11:51:37.116Z,258.75
2018-06-14T11:52:37.266Z,213.75
2018-06-14T11:53:37.440Z,196.88
2018-06-14T11:54:37.648Z,191.25
2018-06-14T11:55:37.811Z,185.63
2018-06-14T11:56:38.012Z,180.00
2018-06-14T11:57:38.178Z,180.00
2018-06-14T11:58:38.350Z,196.88
2018-06-14T11:59:38.537Z,219.38
2018-06-14T12:00:38.728Z,213.75
2018-06-14T12:01:38.976Z,219.38
2018-06-14T12:02:39.101Z,253.13
2018-06-14T12:03:39.285Z,264.38
2018-06-14T12:04:39.472Z,247.50
2018-06-14T12:05:39.659Z,230.63
2018-06-14T12:06:39.846Z,241.88
2018-06-14T12:07:40.101Z,202.50
2018-06-14T12:08:40.230Z,219.38
2018-06-14T12:09:40.411Z,174.38
2018-06-14T12:10:40.608Z,230.63
2018-06-14T12:11:40.800Z,241.88
2018-06-14T12:12:40.998Z,191.25
2018-06-14T12:13:41.148Z,180.00
2018-06-14T12:14:41.313Z,236.25
2018-06-14T12:15:41.574Z,225.00
2018-06-14T12:16:41.714Z,247.50
2018-06-14T12:17:41.872Z,253.13
2018-06-14T12:18:42.055Z,202.50
2018-06-14T12:19:42.262Z,230.63
2018-06-14T12:20:42.431Z,168.75
2018-06-14T12:21:42.604Z,219.38
2018-06-14T12:22:42.784Z,174.38
2018-06-14T12:23:43.027Z,180.00
2018-06-14T12:24:43.139Z,185.63
2018-06-14T12:25:43.314Z,202.50
2018-06-14T12:26:43.549Z,202.50
2018-06-14T12:27:43.751Z,208.13
2018-06-14T12:28:43.874Z,196.88
2018-06-14T12:29:44.064Z,191.25
2018-06-14T12:30:44.230Z,196.88
2018-06-14T12:31:44.478Z,202.50
2018-06-14T12:32:44.623Z,275.63
2018-06-14T12:33:44.782Z,270.00
2018-06-14T12:34:44.977Z,270.00
2018-06-14T12:35:45.152Z,208.13
2018-06-14T12:36:45.387Z,213.75
2018-06-14T12:37:45.605Z,241.88
2018-06-14T12:38:45.711Z,264.38
2018-06-14T12:39:45.892Z,281.25
2018-06-14T12:40:46.116Z,281.25
2018-06-14T12:41:46.248Z,286.88
2018-06-14T12:42:46.458Z,298.13
2018-06-14T12:43:46.740Z,286.88
2018-06-14T12:44:46.856Z,275.63